Terminal Aerodrome Forecast
Issued by NWS

Home | Current Version | Previous Version | Text Only | Print | Product List | Glossary On
Versions: 1 2 3 4 5 6 7 8 9 10 11 12 13 14 15 16 17 18
000
FTUS44 KCRP 182325
TAFLRD
TAF
KLRD 182325Z 1900/1924 05004KT P6SM SCT030
     FM190200 15005KT P6SM SCT015
     FM191000 13005KT P6SM SCT006 BKN012
      TEMPO 1911/1915 5SM BR BKN006
     FM191500 17007KT P6SM SCT025 SCT250
     FM191800 18008KT P6SM FEW050 SCT250=

USA.gov is the U.S. government's official web portal to all federal, state and local government web resources and services.